Terminal Aerodrome Forecast
Issued by NWS

Home | Current Version | Previous Version | Text Only | Print | Product List | Glossary Off
Versions: 1 2 3 4 5 6 7 8 9 10 11 12 13 14 15 16 17 18
000 FTUS41 KBOX 281304 AAA TAFBED TAF AMD KBED 281304Z 2813/2912 20007KT P6SM SCT030 OVC060 TEMPO 2813/2816 BKN030 OVC060 FM290100 18006KT P6SM BKN070 FM290300 16005KT 5SM -SHRA BR OVC010 FM290600 VRB03KT 3SM -SHRA BR OVC010 FM291000 VRB03KT 3SM BR OVC010=

USA.gov is the U.S. government's official web portal to all federal, state and local government web resources and services.